Time;durP1;ratioP1;P1;durP2;ratioP2;P2;SDS_P1;SDS_P2;PMS_P1;PMS_P2;Temp;Humidity;BMP_temperature;BMP_pressure;BME280_temperature;BME280_humidity;BME280_pressure;Samples;Min_cycle;Max_cycle;Signal;HPM_P1;HPM_P2
2023/01/24 00:00:44;;;;;;;30.40;17.90;;;;;;;;;;5073449;28;20170;-70
2023/01/24 00:03:13;;;;;;;30.27;18.40;;;;;;;;;;5070506;28;20178;-69
2023/01/24 00:05:40;;;;;;;34.13;17.40;;;;;;;;;;5068828;28;20185;-70
2023/01/24 00:08:05;;;;;;;41.97;19.40;;;;;;;;;;5069550;28;20518;-71
2023/01/24 00:10:31;;;;;;;32.17;19.70;;;;;;;;;;5069205;28;20416;-70
2023/01/24 00:12:57;;;;;;;31.17;19.00;;;;;;;;;;5068780;28;20631;-70
2023/01/24 00:15:22;;;;;;;34.10;18.90;;;;;;;;;;5069449;28;20186;-70
2023/01/24 00:17:48;;;;;;;31.13;18.80;;;;;;;;;;5069440;28;20190;-70
2023/01/24 00:20:13;;;;;;;31.03;17.87;;;;;;;;;;5069386;28;20567;-71
2023/01/24 00:22:38;;;;;;;33.33;17.97;;;;;;;;;;5069127;28;20695;-70
2023/01/24 00:25:04;;;;;;;29.53;16.70;;;;;;;;;;5069036;28;20699;-69
2023/01/24 00:27:31;;;;;;;34.20;17.73;;;;;;;;;;5068297;28;20182;-69
2023/01/24 00:29:57;;;;;;;31.67;16.57;;;;;;;;;;5068249;28;20180;-68
2023/01/24 00:32:22;;;;;;;28.67;15.70;;;;;;;;;;5068070;28;20560;-69
2023/01/24 00:34:47;;;;;;;28.90;16.73;;;;;;;;;;5068318;28;20298;-70
2023/01/24 00:37:13;;;;;;;36.80;17.37;;;;;;;;;;5068311;28;20201;-69
2023/01/24 00:39:38;;;;;;;28.90;17.27;;;;;;;;;;5068041;28;20170;-70
2023/01/24 00:42:04;;;;;;;27.87;16.97;;;;;;;;;;5067908;28;20320;-70
2023/01/24 00:44:29;;;;;;;27.33;16.23;;;;;;;;;;5068316;28;20166;-69
2023/01/24 00:46:54;;;;;;;30.63;17.47;;;;;;;;;;5067225;28;20526;-69
2023/01/24 00:49:20;;;;;;;31.20;17.20;;;;;;;;;;5068275;28;20499;-69
2023/01/24 00:51:45;;;;;;;28.67;14.70;;;;;;;;;;5067797;28;20604;-70
2023/01/24 00:54:11;;;;;;;25.47;17.53;;;;;;;;;;5067952;28;20606;-69
2023/01/24 00:56:36;;;;;;;35.13;17.13;;;;;;;;;;5049534;28;20202;-69
2023/01/24 00:59:02;;;;;;;30.20;16.70;;;;;;;;;;5048024;28;20669;-71
2023/01/24 01:01:27;;;;;;;25.60;17.40;;;;;;;;;;5047565;28;20175;-68
2023/01/24 01:03:57;;;;;;;26.17;16.33;;;;;;;;;;5048086;28;20220;-70
2023/01/24 01:06:24;;;;;;;25.17;15.10;;;;;;;;;;5047596;28;20205;-70
2023/01/24 01:08:50;;;;;;;24.50;16.77;;;;;;;;;;5047811;28;20420;-70
2023/01/24 01:11:15;;;;;;;27.07;17.30;;;;;;;;;;5047467;28;20417;-69
2023/01/24 01:13:41;;;;;;;29.20;18.17;;;;;;;;;;5047839;28;20567;-69
2023/01/24 01:16:12;;;;;;;31.47;19.00;;;;;;;;;;5048009;28;20190;-71
2023/01/24 01:18:38;;;;;;;22.97;16.00;;;;;;;;;;5048686;28;20183;-69
2023/01/24 01:21:05;;;;;;;29.10;16.80;;;;;;;;;;5048623;28;20779;-69
2023/01/24 01:23:30;;;;;;;31.20;17.10;;;;;;;;;;5053026;28;21135;-70
2023/01/24 01:26:01;;;;;;;28.20;16.10;;;;;;;;;;5047698;28;20413;-69
2023/01/24 01:28:26;;;;;;;28.73;16.30;;;;;;;;;;5047666;28;20564;-68
2023/01/24 01:30:53;;;;;;;29.03;16.33;;;;;;;;;;5047273;28;20421;-69
2023/01/24 01:33:18;;;;;;;28.33;16.77;;;;;;;;;;5047575;28;20275;-69
2023/01/24 01:35:44;;;;;;;26.87;16.97;;;;;;;;;;5047675;28;20468;-70
2023/01/24 01:38:09;;;;;;;33.70;17.93;;;;;;;;;;5047393;28;20230;-69
2023/01/24 01:40:35;;;;;;;29.70;18.03;;;;;;;;;;5047339;28;20774;-68
2023/01/24 01:43:01;;;;;;;31.13;17.00;;;;;;;;;;5047710;28;20767;-69
2023/01/24 01:45:32;;;;;;;36.43;17.37;;;;;;;;;;5047449;28;20421;-69
2023/01/24 01:47:59;;;;;;;27.60;16.00;;;;;;;;;;5047457;28;20213;-70
2023/01/24 01:50:33;;;;;;;30.50;17.57;;;;;;;;;;5047427;28;21250;-69
2023/01/24 01:52:58;;;;;;;30.47;17.93;;;;;;;;;;5047284;28;20532;-69
2023/01/24 01:55:28;;;;;;;30.90;17.90;;;;;;;;;;5055782;28;20430;-69
2023/01/24 01:57:54;;;;;;;28.43;16.30;;;;;;;;;;5068399;28;20199;-70
2023/01/24 02:00:27;;;;;;;31.83;18.97;;;;;;;;;;5070966;28;20435;-70
2023/01/24 02:03:37;;;;;;;27.83;18.13;;;;;;;;;;5071045;28;20440;-68
2023/01/24 02:05:43;;;;;;;29.13;16.87;;;;;;;;;;5070752;28;20899;-69
2023/01/24 02:08:12;;;;;;;33.70;18.70;;;;;;;;;;5070740;28;20435;-68
2023/01/24 02:13:22;;;;;;;31.57;18.47;;;;;;;;;;5071071;28;20459;-68
2023/01/24 02:16:03;;;;;;;33.17;17.70;;;;;;;;;;5070210;28;21091;-68
2023/01/24 02:18:36;;;;;;;27.10;15.10;;;;;;;;;;5069807;28;20170;-71
2023/01/24 02:21:04;;;;;;;28.47;18.63;;;;;;;;;;5069300;28;20501;-70
2023/01/24 02:23:44;;;;;;;28.00;17.30;;;;;;;;;;5069513;28;20474;-70
2023/01/24 02:26:10;;;;;;;29.40;18.40;;;;;;;;;;5069500;28;20443;-70
2023/01/24 02:28:36;;;;;;;22.90;15.73;;;;;;;;;;5069280;28;20452;-70
2023/01/24 02:31:03;;;;;;;29.93;18.73;;;;;;;;;;5068916;28;20178;-70
2023/01/24 02:33:29;;;;;;;29.33;17.40;;;;;;;;;;5050931;28;20452;-69
2023/01/24 02:36:16;;;;;;;29.90;18.67;;;;;;;;;;5069294;28;21143;-69
2023/01/24 02:38:46;;;;;;;29.93;18.10;;;;;;;;;;5069205;28;20170;-69
2023/01/24 02:41:12;;;;;;;24.57;17.87;;;;;;;;;;5068674;28;20933;-70
2023/01/24 02:43:44;;;;;;;31.93;15.90;;;;;;;;;;5069136;28;20450;-70
2023/01/24 02:46:10;;;;;;;29.17;16.27;;;;;;;;;;5068985;28;20417;-70
2023/01/24 02:48:35;;;;;;;31.30;18.23;;;;;;;;;;5069038;28;20466;-70
2023/01/24 02:53:44;;;;;;;25.40;16.23;;;;;;;;;;5068991;28;20281;-69
2023/01/24 02:58:54;;;;;;;31.67;17.07;;;;;;;;;;5049281;28;20264;-70
2023/01/24 03:01:21;;;;;;;30.13;16.67;;;;;;;;;;5048610;28;20456;-70
2023/01/24 03:03:48;;;;;;;29.00;15.87;;;;;;;;;;5048788;28;20171;-69
2023/01/24 03:06:14;;;;;;;25.50;16.47;;;;;;;;;;5049074;28;20825;-68
2023/01/24 03:08:41;;;;;;;30.33;17.97;;;;;;;;;;5049079;28;20428;-68
2023/01/24 03:11:07;;;;;;;28.27;17.47;;;;;;;;;;5047866;28;20424;-70
2023/01/24 03:35:28;;;;;;;29.27;16.53;;;;;;;;;;5049578;28;21045;-70
2023/01/24 03:40:38;;;;;;;27.20;15.97;;;;;;;;;;5048609;28;20927;-69
2023/01/24 03:43:03;;;;;;;34.03;16.80;;;;;;;;;;5049320;28;20498;-70
2023/01/24 03:45:32;;;;;;;31.77;18.57;;;;;;;;;;5049238;28;20251;-70
2023/01/24 03:48:00;;;;;;;25.13;16.63;;;;;;;;;;5048926;28;20739;-69
2023/01/24 03:53:19;;;;;;;26.53;17.23;;;;;;;;;;5048966;28;20925;-69
2023/01/24 03:55:44;;;;;;;28.57;18.20;;;;;;;;;;5048932;28;20459;-69
2023/01/24 03:58:11;;;;;;;28.80;17.17;;;;;;;;;;5048856;28;20437;-68
2023/01/24 04:00:38;;;;;;;30.33;17.57;;;;;;;;;;5048626;28;20198;-68
2023/01/24 04:03:04;;;;;;;32.80;17.77;;;;;;;;;;5048850;28;20464;-70
2023/01/24 04:05:29;;;;;;;33.13;19.30;;;;;;;;;;5048598;28;20413;-70
2023/01/24 04:07:55;;;;;;;31.10;18.40;;;;;;;;;;5030849;28;20491;-69
2023/01/24 04:10:21;;;;;;;35.27;21.30;;;;;;;;;;5048693;28;20171;-69
2023/01/24 04:12:47;;;;;;;34.73;19.37;;;;;;;;;;5030590;28;20480;-70
2023/01/24 04:15:22;;;;;;;31.23;15.73;;;;;;;;;;5048430;28;20257;-69
2023/01/24 04:17:47;;;;;;;37.07;20.23;;;;;;;;;;5048724;28;20563;-71
2023/01/24 04:20:15;;;;;;;32.80;20.23;;;;;;;;;;5048326;28;20410;-69
2023/01/24 04:22:41;;;;;;;32.97;19.10;;;;;;;;;;5048306;28;20697;-68
2023/01/24 04:25:07;;;;;;;33.30;20.33;;;;;;;;;;5048587;28;20417;-69
2023/01/24 04:27:33;;;;;;;32.83;20.87;;;;;;;;;;5048392;28;20194;-69
2023/01/24 04:29:59;;;;;;;36.23;21.33;;;;;;;;;;5048443;28;20891;-69
2023/01/24 04:32:24;;;;;;;34.70;20.00;;;;;;;;;;5047763;28;20174;-71
2023/01/24 04:34:49;;;;;;;32.40;19.20;;;;;;;;;;5048368;28;20285;-69
2023/01/24 04:37:15;;;;;;;34.40;20.07;;;;;;;;;;5048377;28;20190;-69
2023/01/24 04:39:40;;;;;;;33.30;18.90;;;;;;;;;;5048175;28;20174;-70
2023/01/24 04:42:06;;;;;;;33.70;19.30;;;;;;;;;;5047936;28;20174;-70
2023/01/24 04:44:32;;;;;;;30.63;18.70;;;;;;;;;;5048295;28;20198;-70
2023/01/24 04:46:58;;;;;;;33.30;20.07;;;;;;;;;;5048092;28;20211;-70
2023/01/24 04:49:24;;;;;;;37.43;21.37;;;;;;;;;;5047971;28;20708;-69
2023/01/24 04:51:50;;;;;;;36.53;19.80;;;;;;;;;;5047622;28;20414;-70
2023/01/24 04:54:16;;;;;;;32.57;19.60;;;;;;;;;;5047805;28;20222;-70
2023/01/24 04:56:42;;;;;;;34.03;20.10;;;;;;;;;;5047768;28;20473;-70
2023/01/24 04:59:13;;;;;;;37.63;21.43;;;;;;;;;;5047834;28;20860;-70
2023/01/24 05:01:39;;;;;;;36.37;18.87;;;;;;;;;;5047617;28;20170;-69
2023/01/24 05:04:04;;;;;;;34.10;17.80;;;;;;;;;;5047936;28;20468;-69
2023/01/24 05:06:31;;;;;;;34.27;19.30;;;;;;;;;;5047813;28;20194;-69
2023/01/24 05:08:56;;;;;;;34.53;19.77;;;;;;;;;;5048175;28;20196;-69
2023/01/24 05:11:23;;;;;;;31.07;19.27;;;;;;;;;;5048041;28;20418;-69
2023/01/24 05:13:48;;;;;;;40.77;21.17;;;;;;;;;;5048551;28;20217;-70
2023/01/24 05:16:14;;;;;;;38.30;20.63;;;;;;;;;;5049976;28;20440;-70
2023/01/24 05:18:40;;;;;;;31.70;19.50;;;;;;;;;;5049774;28;20656;-70
2023/01/24 05:21:12;;;;;;;38.30;19.43;;;;;;;;;;5049814;28;20263;-71
2023/01/24 05:23:37;;;;;;;37.83;19.63;;;;;;;;;;5050013;28;20711;-69
2023/01/24 05:26:03;;;;;;;34.10;19.00;;;;;;;;;;5049927;28;20430;-70
2023/01/24 05:28:29;;;;;;;34.63;19.30;;;;;;;;;;5050509;28;20554;-70
2023/01/24 05:31:03;;;;;;;31.83;20.73;;;;;;;;;;5049726;28;20501;-69
2023/01/24 05:33:29;;;;;;;34.23;18.87;;;;;;;;;;5049923;28;20695;-68
2023/01/24 05:36:06;;;;;;;34.40;19.87;;;;;;;;;;5051612;28;20405;-69
2023/01/24 05:38:31;;;;;;;36.03;18.33;;;;;;;;;;5051598;28;20517;-69
2023/01/24 05:41:02;;;;;;;39.07;21.73;;;;;;;;;;5051446;28;20440;-68
2023/01/24 05:43:28;;;;;;;34.40;18.20;;;;;;;;;;5051829;28;20166;-69
2023/01/24 05:46:02;;;;;;;37.30;22.40;;;;;;;;;;5051336;28;20573;-70
2023/01/24 05:48:28;;;;;;;36.40;20.03;;;;;;;;;;5051381;28;20417;-69
2023/01/24 05:50:58;;;;;;;34.30;18.80;;;;;;;;;;5051140;28;20405;-68
2023/01/24 05:53:28;;;;;;;32.07;18.90;;;;;;;;;;5051184;28;20225;-69
2023/01/24 05:55:58;;;;;;;35.70;18.00;;;;;;;;;;5063557;28;20501;-69
2023/01/24 05:58:29;;;;;;;32.80;16.70;;;;;;;;;;5071224;28;20435;-69
2023/01/24 06:00:55;;;;;;;31.40;18.57;;;;;;;;;;5068674;28;20428;-71
2023/01/24 06:03:21;;;;;;;30.10;16.83;;;;;;;;;;5050651;28;20857;-69
2023/01/24 06:05:49;;;;;;;30.50;18.10;;;;;;;;;;5050922;28;20200;-70
2023/01/24 06:08:15;;;;;;;29.37;18.80;;;;;;;;;;5050959;28;20531;-69
2023/01/24 06:10:40;;;;;;;28.80;17.80;;;;;;;;;;5050365;28;20504;-68
2023/01/24 06:13:05;;;;;;;27.10;17.07;;;;;;;;;;5050594;28;20882;-69
2023/01/24 06:15:31;;;;;;;29.50;18.10;;;;;;;;;;5050881;28;20213;-71
2023/01/24 06:17:56;;;;;;;30.07;17.43;;;;;;;;;;5050889;28;20265;-69
2023/01/24 06:20:22;;;;;;;30.10;17.80;;;;;;;;;;5032372;28;20252;-69
2023/01/24 06:22:56;;;;;;;26.50;17.87;;;;;;;;;;5050735;28;20186;-69
2023/01/24 06:25:24;;;;;;;29.93;18.90;;;;;;;;;;5050533;28;20215;-71
2023/01/24 06:27:50;;;;;;;31.00;18.37;;;;;;;;;;5050427;28;20434;-71
2023/01/24 06:30:17;;;;;;;30.10;19.03;;;;;;;;;;5050065;28;20418;-70
2023/01/24 06:33:19;;;;;;;34.63;17.10;;;;;;;;;;5050355;28;20405;-70
2023/01/24 06:36:32;;;;;;;27.60;17.37;;;;;;;;;;5024764;28;20427;-69
2023/01/24 06:38:58;;;;;;;31.40;17.70;;;;;;;;;;5032978;28;20429;-70
2023/01/24 06:41:24;;;;;;;29.13;17.60;;;;;;;;;;5049512;28;20413;-70
2023/01/24 06:43:49;;;;;;;30.07;16.03;;;;;;;;;;5049090;28;20250;-71
2023/01/24 06:46:15;;;;;;;25.60;15.63;;;;;;;;;;5049157;28;20201;-70
2023/01/24 06:48:44;;;;;;;31.23;16.80;;;;;;;;;;5049991;28;20194;-70
2023/01/24 06:51:13;;;;;;;29.40;16.33;;;;;;;;;;5052995;28;20186;-70
2023/01/24 06:53:39;;;;;;;23.33;15.53;;;;;;;;;;5065796;28;20467;-69
2023/01/24 06:56:04;;;;;;;26.50;14.77;;;;;;;;;;5055844;28;20497;-70
2023/01/24 06:58:30;;;;;;;25.37;14.60;;;;;;;;;;5049843;28;20175;-70
2023/01/24 07:00:55;;;;;;;26.50;16.03;;;;;;;;;;5049236;28;20250;-69
2023/01/24 07:03:21;;;;;;;29.37;17.10;;;;;;;;;;5051047;28;20481;-70
2023/01/24 07:05:47;;;;;;;25.90;14.70;;;;;;;;;;5049485;28;20171;-69
2023/01/24 07:08:12;;;;;;;22.50;13.70;;;;;;;;;;5074848;28;20193;-70
2023/01/24 07:10:38;;;;;;;23.97;14.73;;;;;;;;;;5069238;28;20404;-70
2023/01/24 07:13:04;;;;;;;27.67;16.03;;;;;;;;;;5069917;28;20552;-71
2023/01/24 07:15:30;;;;;;;24.57;15.23;;;;;;;;;;5069993;28;20466;-70
2023/01/24 07:17:55;;;;;;;21.40;14.50;;;;;;;;;;5068529;28;20281;-70
2023/01/24 07:20:21;;;;;;;22.43;14.97;;;;;;;;;;5062923;28;20673;-70
2023/01/24 07:22:47;;;;;;;23.87;14.63;;;;;;;;;;5062671;28;20182;-70
2023/01/24 07:25:15;;;;;;;25.30;14.63;;;;;;;;;;5065758;28;20171;-68
2023/01/24 07:27:42;;;;;;;24.93;16.87;;;;;;;;;;5067045;28;20313;-67
2023/01/24 07:30:08;;;;;;;25.10;15.13;;;;;;;;;;5064824;28;20871;-67
2023/01/24 07:32:33;;;;;;;26.00;17.40;;;;;;;;;;5065203;28;20429;-69
2023/01/24 07:34:59;;;;;;;23.20;15.47;;;;;;;;;;5062499;28;20453;-68
2023/01/24 07:37:24;;;;;;;35.07;16.23;;;;;;;;;;5063598;28;20383;-68
2023/01/24 07:39:50;;;;;;;22.83;14.80;;;;;;;;;;5068662;28;20565;-68
2023/01/24 07:42:15;;;;;;;23.57;14.60;;;;;;;;;;5064192;28;20244;-66
2023/01/24 07:44:40;;;;;;;25.27;16.20;;;;;;;;;;5068635;28;20177;-67
2023/01/24 07:47:06;;;;;;;26.83;14.00;;;;;;;;;;5061096;28;20229;-68
2023/01/24 07:49:31;;;;;;;22.70;13.90;;;;;;;;;;5048909;28;20167;-68
2023/01/24 07:51:57;;;;;;;27.47;14.80;;;;;;;;;;5048364;28;20171;-67
2023/01/24 07:54:22;;;;;;;23.67;15.03;;;;;;;;;;5048840;28;20210;-68
2023/01/24 07:56:48;;;;;;;25.23;15.37;;;;;;;;;;5067615;28;20212;-67
2023/01/24 07:59:13;;;;;;;22.73;14.47;;;;;;;;;;5065060;28;20516;-67
2023/01/24 08:01:39;;;;;;;24.97;17.70;;;;;;;;;;5055675;28;20595;-68
2023/01/24 08:04:05;;;;;;;23.50;14.43;;;;;;;;;;5066394;28;20170;-67
2023/01/24 08:06:30;;;;;;;23.67;13.77;;;;;;;;;;5063420;28;20476;-69
2023/01/24 08:08:55;;;;;;;21.00;12.27;;;;;;;;;;5062060;28;20292;-67
2023/01/24 08:11:21;;;;;;;24.23;13.97;;;;;;;;;;5062285;28;20254;-69
2023/01/24 08:13:49;;;;;;;30.17;15.00;;;;;;;;;;5061059;28;20190;-69
2023/01/24 08:16:15;;;;;;;20.10;14.20;;;;;;;;;;5068066;28;20466;-69
2023/01/24 08:18:40;;;;;;;26.03;15.40;;;;;;;;;;5049456;28;20492;-68
2023/01/24 08:21:06;;;;;;;21.60;13.27;;;;;;;;;;5047879;28;20764;-68
2023/01/24 08:23:32;;;;;;;18.07;11.80;;;;;;;;;;5048125;28;20632;-68
2023/01/24 08:25:58;;;;;;;21.10;13.73;;;;;;;;;;5047634;28;20207;-68
2023/01/24 08:28:24;;;;;;;20.37;12.47;;;;;;;;;;5047665;28;20185;-69
2023/01/24 08:30:49;;;;;;;23.60;13.80;;;;;;;;;;5047620;28;20409;-70
2023/01/24 08:33:18;;;;;;;19.40;11.77;;;;;;;;;;5055721;28;20184;-70
2023/01/24 08:35:45;;;;;;;20.00;13.00;;;;;;;;;;5060014;28;20251;-70
2023/01/24 08:38:11;;;;;;;22.20;14.10;;;;;;;;;;5054443;28;20511;-68
2023/01/24 08:40:36;;;;;;;17.87;13.07;;;;;;;;;;5056128;28;20447;-68
2023/01/24 08:43:02;;;;;;;18.57;12.00;;;;;;;;;;5064522;28;20436;-67
2023/01/24 08:45:27;;;;;;;21.20;13.60;;;;;;;;;;5066929;28;20212;-69
2023/01/24 08:47:53;;;;;;;21.23;12.37;;;;;;;;;;5067179;28;20197;-68
2023/01/24 08:50:19;;;;;;;16.67;11.87;;;;;;;;;;5066971;28;20170;-68
2023/01/24 08:52:46;;;;;;;15.63;11.37;;;;;;;;;;5063872;28;20190;-68
2023/01/24 08:55:12;;;;;;;14.30;11.07;;;;;;;;;;5056952;28;20568;-69
2023/01/24 08:57:37;;;;;;;19.73;14.00;;;;;;;;;;5067193;28;20555;-67
2023/01/24 09:00:03;;;;;;;17.37;11.20;;;;;;;;;;5066996;28;20180;-70
2023/01/24 09:02:29;;;;;;;16.53;10.80;;;;;;;;;;5064758;28;20684;-68
2023/01/24 09:04:54;;;;;;;20.70;11.70;;;;;;;;;;5066799;28;20228;-68
2023/01/24 09:07:19;;;;;;;21.93;12.03;;;;;;;;;;5067177;28;20228;-70
2023/01/24 09:09:45;;;;;;;15.50;11.73;;;;;;;;;;5070970;28;20170;-69
2023/01/24 09:12:10;;;;;;;17.90;11.80;;;;;;;;;;5070491;28;20538;-70
2023/01/24 09:14:36;;;;;;;16.47;11.90;;;;;;;;;;5060834;28;20587;-70
2023/01/24 09:17:01;;;;;;;19.17;13.20;;;;;;;;;;5070568;28;20784;-70
2023/01/24 09:19:26;;;;;;;14.90;11.50;;;;;;;;;;5070896;28;20907;-70
2023/01/24 09:21:55;;;;;;;16.90;12.13;;;;;;;;;;5066035;28;20185;-69
2023/01/24 09:24:20;;;;;;;18.47;11.47;;;;;;;;;;5053794;28;20196;-70
2023/01/24 09:26:46;;;;;;;18.00;11.83;;;;;;;;;;5064540;28;20460;-67
2023/01/24 09:29:11;;;;;;;15.93;10.93;;;;;;;;;;5065136;28;20185;-70
2023/01/24 09:31:37;;;;;;;19.77;11.87;;;;;;;;;;5065548;28;20186;-69
2023/01/24 09:34:02;;;;;;;20.33;12.27;;;;;;;;;;5070208;28;20205;-68
2023/01/24 09:36:29;;;;;;;18.90;11.17;;;;;;;;;;5070483;28;20626;-68
2023/01/24 09:38:55;;;;;;;19.30;12.07;;;;;;;;;;5067787;28;20211;-67
2023/01/24 09:41:40;;;;;;;15.90;11.60;;;;;;;;;;5068453;28;20611;-68
2023/01/24 09:44:36;;;;;;;18.13;11.23;;;;;;;;;;5065945;28;20252;-68
2023/01/24 09:47:14;;;;;;;22.13;11.80;;;;;;;;;;5071267;28;20412;-68
2023/01/24 09:49:45;;;;;;;20.63;12.07;;;;;;;;;;5077538;28;20420;-68
2023/01/24 09:52:17;;;;;;;17.90;11.53;;;;;;;;;;5067402;28;20436;-67
2023/01/24 09:55:00;;;;;;;19.80;12.83;;;;;;;;;;5062558;28;20758;-68
2023/01/24 09:57:49;;;;;;;18.20;11.10;;;;;;;;;;5062726;28;20421;-68
2023/01/24 10:00:25;;;;;;;16.77;10.87;;;;;;;;;;5050368;28;20981;-68
2023/01/24 10:02:51;;;;;;;18.90;12.30;;;;;;;;;;5051513;28;20912;-68
2023/01/24 10:05:19;;;;;;;19.43;10.07;;;;;;;;;;5070097;28;20415;-68
2023/01/24 10:07:55;;;;;;;19.03;11.50;;;;;;;;;;5070337;28;20447;-66
2023/01/24 10:10:53;;;;;;;18.37;12.87;;;;;;;;;;5069042;28;20408;-67
2023/01/24 10:13:50;;;;;;;16.67;12.33;;;;;;;;;;5067603;28;20498;-68
2023/01/24 10:16:25;;;;;;;18.90;11.13;;;;;;;;;;5053857;28;20467;-66
2023/01/24 10:19:10;;;;;;;26.77;12.90;;;;;;;;;;5066067;28;20455;-68
2023/01/24 10:22:03;;;;;;;17.63;12.03;;;;;;;;;;5066376;28;20432;-69
2023/01/24 10:24:34;;;;;;;18.67;12.37;;;;;;;;;;5063830;28;20412;-69
2023/01/24 10:27:00;;;;;;;14.93;11.10;;;;;;;;;;5069495;28;20425;-68
2023/01/24 10:29:38;;;;;;;18.90;12.47;;;;;;;;;;5061332;28;20452;-67
2023/01/24 10:32:16;;;;;;;16.17;11.87;;;;;;;;;;5056479;28;20460;-68
2023/01/24 10:34:46;;;;;;;46.43;12.77;;;;;;;;;;5062044;28;20451;-69
2023/01/24 10:37:20;;;;;;;19.53;10.83;;;;;;;;;;5069653;28;20432;-68
2023/01/24 10:39:46;;;;;;;32.37;13.00;;;;;;;;;;5051383;28;20412;-67
2023/01/24 10:42:16;;;;;;;18.83;10.97;;;;;;;;;;5061018;28;20676;-70
2023/01/24 10:44:42;;;;;;;41.57;12.83;;;;;;;;;;5069753;28;20171;-69
2023/01/24 10:47:18;;;;;;;47.27;15.00;;;;;;;;;;5069569;28;20471;-67
2023/01/24 10:49:52;;;;;;;16.10;11.50;;;;;;;;;;5066603;28;20240;-69
2023/01/24 10:52:19;;;;;;;14.20;10.33;;;;;;;;;;5068209;28;20412;-70
2023/01/24 10:54:57;;;;;;;17.27;11.80;;;;;;;;;;5053686;28;20469;-71
2023/01/24 10:57:48;;;;;;;18.50;11.10;;;;;;;;;;5069992;28;20428;-67
2023/01/24 11:00:34;;;;;;;13.97;9.23;;;;;;;;;;5061861;28;20421;-68
2023/01/24 11:03:03;;;;;;;15.97;11.13;;;;;;;;;;5069394;28;20470;-69
2023/01/24 11:05:46;;;;;;;17.50;10.80;;;;;;;;;;5069616;28;20400;-67
2023/01/24 11:08:37;;;;;;;12.53;10.27;;;;;;;;;;5069472;28;21046;-69
2023/01/24 11:11:22;;;;;;;13.07;10.30;;;;;;;;;;5061447;28;21070;-69
2023/01/24 11:13:52;;;;;;;15.90;10.83;;;;;;;;;;5058050;28;20591;-70
2023/01/24 11:16:18;;;;;;;15.80;10.23;;;;;;;;;;5066494;28;20494;-67
2023/01/24 11:19:04;;;;;;;13.17;9.90;;;;;;;;;;5064783;28;20937;-68
2023/01/24 11:21:31;;;;;;;13.37;10.07;;;;;;;;;;5064754;28;20189;-68
2023/01/24 11:24:05;;;;;;;16.07;11.77;;;;;;;;;;5069237;28;20409;-66
2023/01/24 11:26:36;;;;;;;17.70;10.63;;;;;;;;;;5069234;28;20464;-66
2023/01/24 11:29:05;;;;;;;18.17;9.47;;;;;;;;;;5069005;28;20463;-68
2023/01/24 11:31:46;;;;;;;13.07;10.30;;;;;;;;;;5063058;28;20443;-67
2023/01/24 11:34:27;;;;;;;13.70;9.63;;;;;;;;;;5068814;28;20539;-68
2023/01/24 11:36:59;;;;;;;13.67;10.27;;;;;;;;;;5069033;28;20479;-68
2023/01/24 11:39:49;;;;;;;12.63;9.20;;;;;;;;;;5071371;28;20471;-68
2023/01/24 11:42:20;;;;;;;16.30;9.70;;;;;;;;;;5075191;28;20413;-68
2023/01/24 11:45:14;;;;;;;12.67;9.33;;;;;;;;;;5088235;28;20400;-67
2023/01/24 11:47:55;;;;;;;23.23;10.50;;;;;;;;;;5010211;28;20920;-68
2023/01/24 11:50:43;;;;;;;14.83;9.50;;;;;;;;;;5073260;28;20518;-69
2023/01/24 11:53:17;;;;;;;16.77;10.47;;;;;;;;;;5088764;28;20473;-69
2023/01/24 11:56:01;;;;;;;16.73;10.33;;;;;;;;;;5077742;28;20459;-69
2023/01/24 11:58:40;;;;;;;13.60;9.57;;;;;;;;;;5068336;28;20423;-70
2023/01/24 12:01:21;;;;;;;14.10;9.63;;;;;;;;;;5067943;28;20470;-68
2023/01/24 12:04:17;;;;;;;17.33;10.43;;;;;;;;;;5068321;28;20489;-68
2023/01/24 12:07:00;;;;;;;14.63;10.40;;;;;;;;;;5068346;28;20424;-69
2023/01/24 12:09:31;;;;;;;16.80;10.50;;;;;;;;;;5081351;28;20495;-69
2023/01/24 12:12:21;;;;;;;14.63;9.30;;;;;;;;;;5067863;28;20409;-69
2023/01/24 12:15:17;;;;;;;17.10;9.80;;;;;;;;;;5082715;28;20466;-69
2023/01/24 12:18:16;;;;;;;11.87;8.77;;;;;;;;;;5088387;28;20522;-68
2023/01/24 12:21:20;;;;;;;13.07;9.60;;;;;;;;;;5087794;28;20503;-67
2023/01/24 12:24:15;;;;;;;31.57;10.97;;;;;;;;;;5005788;28;20812;-68
2023/01/24 12:26:49;;;;;;;19.03;10.47;;;;;;;;;;4985102;28;20579;-68
2023/01/24 12:29:22;;;;;;;11.77;8.63;;;;;;;;;;4985425;28;20505;-67
2023/01/24 12:32:00;;;;;;;13.07;9.60;;;;;;;;;;4985717;28;20466;-69
2023/01/24 12:34:35;;;;;;;14.63;10.47;;;;;;;;;;4981597;28;20516;-70
2023/01/24 12:37:27;;;;;;;16.93;10.90;;;;;;;;;;4985870;28;20499;-69
2023/01/24 12:40:11;;;;;;;14.67;10.63;;;;;;;;;;4986880;28;20412;-69
2023/01/24 12:42:45;;;;;;;19.30;11.30;;;;;;;;;;4985709;28;20437;-69
2023/01/24 12:45:16;;;;;;;16.70;10.90;;;;;;;;;;4985307;28;20874;-67
2023/01/24 12:47:50;;;;;;;17.93;9.83;;;;;;;;;;4986074;28;20487;-67
2023/01/24 12:50:21;;;;;;;14.97;12.40;;;;;;;;;;4985146;28;20840;-68
2023/01/24 12:52:49;;;;;;;15.50;10.13;;;;;;;;;;4984886;28;20426;-67
2023/01/24 12:55:20;;;;;;;19.20;12.20;;;;;;;;;;5050371;28;20463;-68
2023/01/24 12:57:50;;;;;;;16.80;11.63;;;;;;;;;;5056222;28;21001;-68
2023/01/24 13:00:21;;;;;;;17.00;12.17;;;;;;;;;;5060643;28;20437;-69
2023/01/24 13:02:49;;;;;;;18.43;11.33;;;;;;;;;;5066482;28;20537;-70
2023/01/24 13:05:18;;;;;;;15.27;10.50;;;;;;;;;;5067913;28;20439;-71
2023/01/24 13:08:01;;;;;;;16.67;9.70;;;;;;;;;;5067620;28;20420;-69
2023/01/24 13:10:53;;;;;;;18.23;10.70;;;;;;;;;;5056742;28;20425;-68
2023/01/24 13:13:32;;;;;;;17.63;10.40;;;;;;;;;;5055866;28;20425;-68
2023/01/24 13:16:25;;;;;;;17.20;9.87;;;;;;;;;;5067068;28;20473;-67
2023/01/24 13:18:53;;;;;;;28.33;14.47;;;;;;;;;;5067813;28;20408;-67
2023/01/24 13:21:37;;;;;;;13.40;10.10;;;;;;;;;;5067315;28;20409;-70
2023/01/24 13:24:11;;;;;;;19.07;10.50;;;;;;;;;;5065430;28;20486;-68
2023/01/24 13:27:06;;;;;;;12.90;10.33;;;;;;;;;;5059084;28;20464;-68
2023/01/24 13:29:51;;;;;;;12.10;10.50;;;;;;;;;;5038171;28;20466;-68
2023/01/24 13:32:19;;;;;;;13.10;9.03;;;;;;;;;;5067108;28;20400;-67
2023/01/24 13:34:55;;;;;;;13.73;9.60;;;;;;;;;;5065580;28;20597;-68
2023/01/24 13:37:28;;;;;;;15.17;10.37;;;;;;;;;;5067246;28;20787;-69
2023/01/24 13:40:06;;;;;;;16.17;9.93;;;;;;;;;;5067841;28;20912;-69
2023/01/24 13:42:38;;;;;;;15.00;9.83;;;;;;;;;;5067420;28;20406;-68
2023/01/24 13:45:22;;;;;;;15.80;9.63;;;;;;;;;;5065783;28;20430;-68
2023/01/24 13:47:48;;;;;;;18.80;10.60;;;;;;;;;;5035919;28;20802;-69
2023/01/24 13:50:25;;;;;;;12.60;9.37;;;;;;;;;;5065962;28;20428;-69
2023/01/24 13:52:55;;;;;;;14.97;9.63;;;;;;;;;;5061256;28;20416;-69
2023/01/24 13:55:23;;;;;;;13.97;9.30;;;;;;;;;;5067393;28;20463;-69
2023/01/24 13:58:11;;;;;;;16.27;11.30;;;;;;;;;;5070288;28;20424;-68
2023/01/24 14:00:47;;;;;;;12.67;9.87;;;;;;;;;;5064864;28;21330;-67
2023/01/24 14:03:20;;;;;;;18.37;10.70;;;;;;;;;;5069769;28;20424;-66
2023/01/24 14:05:54;;;;;;;14.20;9.60;;;;;;;;;;5059521;28;20459;-70
2023/01/24 14:08:19;;;;;;;14.10;9.63;;;;;;;;;;5068015;28;20431;-69
2023/01/24 14:10:47;;;;;;;13.87;10.27;;;;;;;;;;5069006;28;20431;-70
2023/01/24 14:13:47;;;;;;;14.70;10.77;;;;;;;;;;5069061;28;20182;-71
2023/01/24 14:16:38;;;;;;;13.17;10.07;;;;;;;;;;5066381;28;20421;-68
2023/01/24 14:19:15;;;;;;;15.77;10.97;;;;;;;;;;5069973;28;20431;-68
2023/01/24 14:22:05;;;;;;;15.27;10.53;;;;;;;;;;5069217;28;20565;-69
2023/01/24 14:24:36;;;;;;;17.27;10.63;;;;;;;;;;5063738;28;20589;-69
2023/01/24 14:27:24;;;;;;;13.93;10.20;;;;;;;;;;5062579;28;20514;-68
2023/01/24 14:29:57;;;;;;;12.47;9.47;;;;;;;;;;5063413;28;20392;-69
2023/01/24 14:32:28;;;;;;;15.50;10.50;;;;;;;;;;5066390;28;20428;-67
2023/01/24 14:35:06;;;;;;;15.87;10.57;;;;;;;;;;5063895;28;20889;-68
2023/01/24 14:37:32;;;;;;;13.43;11.17;;;;;;;;;;5069690;28;20936;-70
2023/01/24 14:40:15;;;;;;;16.70;11.40;;;;;;;;;;5069619;28;20471;-69
2023/01/24 14:42:41;;;;;;;16.50;10.70;;;;;;;;;;5069505;28;20495;-68
2023/01/24 14:45:13;;;;;;;13.97;10.90;;;;;;;;;;5062918;28;20528;-68
2023/01/24 14:47:40;;;;;;;18.17;12.07;;;;;;;;;;5056359;28;20194;-69
2023/01/24 14:50:38;;;;;;;16.37;11.10;;;;;;;;;;5065305;28;20895;-69
2023/01/24 14:53:24;;;;;;;16.67;10.80;;;;;;;;;;5061298;28;20433;-70
2023/01/24 14:55:52;;;;;;;14.47;9.87;;;;;;;;;;5060931;28;20456;-68
2023/01/24 14:58:29;;;;;;;15.87;11.67;;;;;;;;;;5069487;28;20801;-68
2023/01/24 15:00:57;;;;;;;16.77;11.10;;;;;;;;;;5051017;28;20492;-68
2023/01/24 15:03:26;;;;;;;14.73;11.73;;;;;;;;;;5059710;28;20450;-68
2023/01/24 15:06:07;;;;;;;17.03;12.00;;;;;;;;;;5076922;28;20963;-68
2023/01/24 15:08:33;;;;;;;18.80;11.93;;;;;;;;;;5052045;28;20405;-68
2023/01/24 15:11:16;;;;;;;19.37;11.50;;;;;;;;;;5048695;28;20405;-69
2023/01/24 15:13:44;;;;;;;18.13;11.70;;;;;;;;;;5067364;28;20439;-68
2023/01/24 15:16:23;;;;;;;19.67;11.30;;;;;;;;;;5068101;28;20451;-68